createdAt,value
2022-08-20T00:00:41.961Z,19.32
2022-08-20T00:03:14.271Z,19.35
2022-08-20T00:05:43.895Z,19.38
2022-08-20T00:08:11.433Z,19.37
2022-08-20T00:10:40.963Z,19.38
2022-08-20T00:13:10.692Z,19.36
2022-08-20T00:15:41.811Z,19.35
2022-08-20T00:18:09.091Z,19.34
2022-08-20T00:20:42.509Z,19.34
2022-08-20T00:23:10.597Z,19.32
2022-08-20T00:25:37.260Z,19.28
2022-08-20T00:28:04.530Z,19.28
2022-08-20T00:30:32.252Z,19.28
2022-08-20T00:33:01.962Z,19.30
2022-08-20T00:35:31.821Z,19.27
2022-08-20T00:38:00.734Z,19.27
2022-08-20T00:40:41.866Z,19.26
2022-08-20T00:43:41.723Z,19.24
2022-08-20T00:46:16.931Z,19.25
2022-08-20T00:48:47.862Z,19.24
2022-08-20T00:51:23.434Z,19.23
2022-08-20T00:53:49.964Z,19.21
2022-08-20T00:56:16.997Z,19.20
2022-08-20T00:58:45.199Z,19.20
2022-08-20T01:01:12.231Z,19.13
2022-08-20T01:03:39.804Z,19.16
2022-08-20T01:06:06.557Z,19.16
2022-08-20T01:08:33.100Z,19.20
2022-08-20T01:11:10.458Z,19.15
2022-08-20T01:13:39.504Z,19.12
2022-08-20T01:16:14.730Z,19.10
2022-08-20T01:18:46.378Z,19.12
2022-08-20T01:21:13.411Z,19.13
2022-08-20T01:23:43.257Z,19.12
2022-08-20T01:26:16.964Z,19.11
2022-08-20T01:28:57.636Z,19.10
2022-08-20T01:31:27.819Z,19.09
2022-08-20T01:33:55.829Z,19.11
2022-08-20T01:36:31.722Z,19.11
2022-08-20T01:39:00.099Z,19.07
2022-08-20T01:41:47.910Z,19.06
2022-08-20T01:44:16.806Z,19.05
2022-08-20T01:46:47.520Z,19.04
2022-08-20T01:49:21.052Z,19.07
2022-08-20T01:51:50.778Z,19.04
2022-08-20T01:54:17.463Z,19.04
2022-08-20T01:57:14.357Z,19.02
2022-08-20T01:59:41.994Z,19.00
2022-08-20T02:02:10.034Z,18.94
2022-08-20T02:04:37.357Z,18.90
2022-08-20T02:07:05.621Z,18.84
2022-08-20T02:09:36.283Z,18.82
2022-08-20T02:12:03.701Z,18.76
2022-08-20T02:14:30.772Z,18.76
2022-08-20T02:16:58.569Z,18.75
2022-08-20T02:19:35.415Z,18.76
2022-08-20T02:22:05.512Z,18.77
2022-08-20T02:24:32.236Z,18.81
2022-08-20T02:26:58.759Z,18.79
2022-08-20T02:29:26.233Z,18.76
2022-08-20T02:32:28.358Z,18.76
2022-08-20T02:34:41.448Z,18.74
2022-08-20T02:37:08.406Z,18.73
2022-08-20T02:39:35.534Z,18.72
2022-08-20T02:42:05.271Z,18.70
2022-08-20T02:44:32.218Z,18.69
2022-08-20T02:46:59.961Z,18.69
2022-08-20T02:49:26.555Z,18.68
2022-08-20T02:51:53.045Z,18.66
2022-08-20T02:54:19.580Z,18.62
2022-08-20T02:56:46.164Z,18.61
2022-08-20T02:59:19.063Z,18.59
2022-08-20T03:01:46.553Z,18.55
2022-08-20T03:04:26.235Z,18.52
2022-08-20T03:06:52.921Z,18.52
2022-08-20T03:09:19.487Z,18.50
2022-08-20T03:11:45.998Z,18.49
2022-08-20T03:14:12.509Z,18.49
2022-08-20T03:16:39.005Z,18.47
2022-08-20T03:19:05.520Z,18.46
2022-08-20T03:21:32.477Z,18.45
2022-08-20T03:23:58.961Z,18.41
2022-08-20T03:26:25.457Z,18.42
2022-08-20T03:28:51.957Z,18.41
2022-08-20T03:31:18.926Z,18.43
2022-08-20T03:33:52.764Z,18.44
2022-08-20T03:36:22.288Z,18.46
2022-08-20T03:38:59.160Z,18.45
2022-08-20T03:41:26.148Z,18.44
2022-08-20T03:43:52.807Z,18.47
2022-08-20T03:46:23.264Z,18.46
2022-08-20T03:48:56.336Z,18.46
2022-08-20T03:51:26.508Z,18.43
2022-08-20T03:53:53.053Z,18.42
2022-08-20T03:56:19.520Z,18.41
2022-08-20T03:58:46.424Z,18.41
2022-08-20T04:01:44.355Z,18.37
2022-08-20T04:03:59.872Z,18.35
2022-08-20T04:06:29.137Z,18.33
2022-08-20T04:08:56.684Z,18.29
2022-08-20T04:11:24.223Z,18.26
2022-08-20T04:13:50.823Z,18.25
2022-08-20T04:16:18.081Z,18.22
2022-08-20T04:19:01.730Z,18.20
2022-08-20T04:21:33.111Z,18.15
2022-08-20T04:24:00.510Z,18.13
2022-08-20T04:26:27.017Z,18.10
2022-08-20T04:28:55.883Z,18.09
2022-08-20T04:31:25.414Z,18.07
2022-08-20T04:33:52.174Z,18.06
2022-08-20T04:36:18.656Z,18.04
2022-08-20T04:38:48.402Z,18.03
2022-08-20T04:41:23.585Z,18.03
2022-08-20T04:43:53.006Z,18.03
2022-08-20T04:46:20.556Z,18.02
2022-08-20T04:48:48.802Z,18.02
2022-08-20T04:51:16.821Z,18.03
2022-08-20T04:53:44.597Z,18.03
2022-08-20T04:56:19.759Z,18.03
2022-08-20T04:58:48.762Z,18.04
2022-08-20T05:01:15.539Z,18.04
2022-08-20T05:03:42.702Z,18.04
2022-08-20T05:06:11.417Z,18.05
2022-08-20T05:08:38.666Z,18.04
2022-08-20T05:11:33.635Z,18.05
2022-08-20T05:13:53.913Z,18.05
2022-08-20T05:16:21.417Z,18.03
2022-08-20T05:18:52.185Z,18.03
2022-08-20T05:21:20.440Z,18.03
2022-08-20T05:23:46.952Z,18.02
2022-08-20T05:26:16.048Z,17.99
2022-08-20T05:28:57.965Z,17.98
2022-08-20T05:31:31.863Z,17.99
2022-08-20T05:34:12.134Z,17.96
2022-08-20T05:36:40.882Z,17.93
2022-08-20T05:39:08.914Z,17.92
2022-08-20T05:41:36.360Z,17.91
2022-08-20T05:44:03.315Z,17.93
2022-08-20T05:46:31.937Z,17.94
2022-08-20T05:49:00.165Z,17.93
2022-08-20T05:51:28.275Z,17.85
2022-08-20T05:53:54.889Z,17.82
2022-08-20T05:56:26.882Z,17.83
2022-08-20T05:58:53.763Z,17.82
2022-08-20T06:01:20.298Z,17.86
2022-08-20T06:04:05.337Z,17.95
2022-08-20T06:06:44.103Z,18.07
2022-08-20T06:09:13.834Z,18.16
2022-08-20T06:11:40.401Z,18.25
2022-08-20T06:14:06.893Z,18.36
2022-08-20T06:16:33.500Z,18.43
2022-08-20T06:19:02.655Z,18.50
2022-08-20T06:21:29.881Z,18.52
2022-08-20T06:23:59.206Z,18.59
2022-08-20T06:26:29.725Z,18.61
2022-08-20T06:28:56.590Z,18.63
2022-08-20T06:31:23.191Z,18.69
2022-08-20T06:33:49.996Z,18.76
2022-08-20T06:36:18.700Z,18.87
2022-08-20T06:38:46.572Z,18.95
2022-08-20T06:41:14.147Z,18.99
2022-08-20T06:43:40.763Z,19.04
2022-08-20T06:46:07.586Z,19.13
2022-08-20T06:48:34.280Z,19.18
2022-08-20T06:51:01.472Z,19.27
2022-08-20T06:53:29.006Z,19.34
2022-08-20T06:56:00.601Z,19.45
2022-08-20T06:58:35.666Z,19.45
2022-08-20T07:01:10.563Z,19.53
2022-08-20T07:03:38.996Z,19.58
2022-08-20T07:06:06.633Z,19.67
2022-08-20T07:08:33.598Z,19.75
2022-08-20T07:11:00.082Z,19.83
2022-08-20T07:13:26.748Z,19.90
2022-08-20T07:15:54.028Z,20.08
2022-08-20T07:18:28.277Z,20.14
2022-08-20T07:20:57.249Z,20.14
2022-08-20T07:23:26.314Z,20.13
2022-08-20T07:25:53.657Z,20.15
2022-08-20T07:28:23.553Z,20.27
2022-08-20T07:31:13.357Z,20.42
2022-08-20T07:33:41.451Z,20.55
2022-08-20T07:36:09.035Z,20.62
2022-08-20T07:38:36.654Z,20.65
2022-08-20T07:41:13.527Z,20.80
2022-08-20T07:43:40.935Z,20.87
2022-08-20T07:46:08.998Z,21.06
2022-08-20T07:48:41.784Z,21.18
2022-08-20T07:51:10.965Z,21.29
2022-08-20T07:53:39.850Z,21.52
2022-08-20T07:56:14.158Z,21.69
2022-08-20T07:58:49.653Z,21.65
2022-08-20T08:01:29.654Z,21.85
2022-08-20T08:03:57.605Z,22.03
2022-08-20T08:06:29.082Z,22.17
2022-08-20T08:09:09.860Z,22.24
2022-08-20T08:11:39.933Z,22.40
2022-08-20T08:14:10.173Z,22.46
2022-08-20T08:16:37.137Z,22.34
2022-08-20T08:19:06.793Z,22.51
2022-08-20T08:21:33.293Z,22.61
2022-08-20T08:23:59.812Z,22.73
2022-08-20T08:26:28.828Z,22.98
2022-08-20T08:28:55.742Z,23.13
2022-08-20T08:31:22.323Z,23.13
2022-08-20T08:33:48.801Z,23.28
2022-08-20T08:36:16.219Z,23.30
2022-08-20T08:38:45.523Z,23.31
2022-08-20T08:41:31.891Z,23.31
2022-08-20T08:44:08.208Z,23.44
2022-08-20T08:46:44.067Z,23.59
2022-08-20T08:49:14.752Z,23.66
2022-08-20T08:52:22.299Z,23.81
2022-08-20T08:54:53.411Z,23.96
2022-08-20T08:57:20.156Z,24.06
2022-08-20T09:00:04.408Z,24.13
2022-08-20T09:02:35.218Z,24.18
2022-08-20T09:05:13.326Z,24.30
2022-08-20T09:07:39.931Z,24.43
2022-08-20T09:10:07.214Z,24.51
2022-08-20T09:12:34.028Z,24.51
2022-08-20T09:15:01.443Z,24.54
2022-08-20T09:17:28.027Z,24.41
2022-08-20T09:19:54.552Z,24.58
2022-08-20T09:22:25.915Z,24.54
2022-08-20T09:24:53.266Z,24.66
2022-08-20T09:27:19.827Z,24.77
2022-08-20T09:29:46.685Z,24.77
2022-08-20T09:32:21.672Z,24.89
2022-08-20T09:34:56.468Z,25.00
2022-08-20T09:37:32.386Z,25.17
2022-08-20T09:40:01.235Z,25.20
2022-08-20T09:42:37.528Z,25.10
2022-08-20T09:45:10.905Z,24.91
2022-08-20T09:47:38.766Z,24.93
2022-08-20T09:50:10.908Z,25.12
2022-08-20T09:52:41.303Z,25.18
2022-08-20T09:55:22.241Z,25.12
2022-08-20T09:57:51.022Z,25.26
2022-08-20T10:00:18.532Z,25.40
2022-08-20T10:02:45.978Z,25.39
2022-08-20T10:05:13.250Z,25.46
2022-08-20T10:07:40.227Z,25.57
2022-08-20T10:10:10.471Z,25.69
2022-08-20T10:12:37.024Z,25.83
2022-08-20T10:15:04.190Z,25.96
2022-08-20T10:17:30.874Z,25.97
2022-08-20T10:19:57.331Z,25.94
2022-08-20T10:22:24.491Z,25.93
2022-08-20T10:24:50.957Z,26.10
2022-08-20T10:27:17.391Z,26.17
2022-08-20T10:29:46.904Z,26.25
2022-08-20T10:32:16.040Z,26.17
2022-08-20T10:34:44.752Z,26.20
2022-08-20T10:37:16.075Z,26.27
2022-08-20T10:39:42.703Z,26.28
2022-08-20T10:42:09.230Z,26.22
2022-08-20T10:44:35.766Z,26.38
2022-08-20T10:47:29.664Z,26.59
2022-08-20T10:49:58.095Z,26.78
2022-08-20T10:52:26.145Z,26.78
2022-08-20T10:54:53.909Z,26.76
2022-08-20T10:57:28.031Z,26.51
2022-08-20T10:59:57.438Z,26.73
2022-08-20T11:02:25.155Z,27.00
2022-08-20T11:04:52.558Z,26.68
2022-08-20T11:07:49.871Z,26.58
2022-08-20T11:10:16.635Z,26.88
2022-08-20T11:12:46.063Z,27.16
2022-08-20T11:15:13.559Z,27.27
2022-08-20T11:17:42.444Z,26.88
2022-08-20T11:20:10.622Z,26.64
2022-08-20T11:22:37.726Z,26.40
2022-08-20T11:25:06.589Z,26.09
2022-08-20T11:27:36.802Z,25.90
2022-08-20T11:30:08.455Z,25.79
2022-08-20T11:32:35.493Z,25.52
2022-08-20T11:35:13.809Z,25.27
2022-08-20T11:37:48.716Z,25.13
2022-08-20T11:40:15.285Z,25.30
2022-08-20T11:43:04.411Z,25.90
2022-08-20T11:45:28.413Z,26.54
2022-08-20T11:47:54.904Z,26.92
2022-08-20T11:50:22.050Z,26.54
2022-08-20T11:52:48.749Z,26.17
2022-08-20T11:55:17.096Z,25.99
2022-08-20T11:57:46.938Z,25.73
2022-08-20T12:00:21.771Z,25.43
2022-08-20T12:02:59.311Z,25.25
2022-08-20T12:05:27.383Z,25.08
2022-08-20T12:07:54.023Z,24.98
2022-08-20T12:10:20.615Z,25.03
2022-08-20T12:12:47.131Z,25.48
2022-08-20T12:15:13.702Z,25.61
2022-08-20T12:17:40.253Z,25.38
2022-08-20T12:20:10.529Z,25.34
2022-08-20T12:22:37.183Z,25.28
2022-08-20T12:25:05.641Z,25.21
2022-08-20T12:27:33.556Z,25.34
2022-08-20T12:30:07.206Z,25.96
2022-08-20T12:32:35.452Z,25.92
2022-08-20T12:35:02.485Z,25.77
2022-08-20T12:37:31.201Z,25.68
2022-08-20T12:40:00.646Z,25.48
2022-08-20T12:42:30.306Z,25.81
2022-08-20T12:44:57.732Z,26.48
2022-08-20T12:47:30.796Z,26.97
2022-08-20T12:50:01.905Z,27.22
2022-08-20T12:52:30.071Z,27.04
2022-08-20T12:54:57.922Z,26.62
2022-08-20T12:57:24.328Z,26.59
2022-08-20T12:59:50.928Z,26.43
2022-08-20T13:02:20.038Z,26.27
2022-08-20T13:04:46.672Z,26.14
2022-08-20T13:07:14.504Z,25.99
2022-08-20T13:09:42.722Z,25.81
2022-08-20T13:12:10.316Z,25.71
2022-08-20T13:14:38.398Z,25.63
2022-08-20T13:17:05.459Z,25.64
2022-08-20T13:19:34.827Z,25.59
2022-08-20T13:22:01.548Z,25.59
2022-08-20T13:24:28.334Z,25.51
2022-08-20T13:26:54.829Z,25.54
2022-08-20T13:29:21.350Z,25.54
2022-08-20T13:31:47.838Z,25.58
2022-08-20T13:34:14.247Z,25.56
2022-08-20T13:36:40.815Z,25.48
2022-08-20T13:39:07.797Z,25.41
2022-08-20T13:41:34.654Z,25.30
2022-08-20T13:44:01.378Z,25.16
2022-08-20T13:46:28.050Z,25.14
2022-08-20T13:48:54.542Z,25.12
2022-08-20T13:51:21.760Z,25.24
2022-08-20T13:53:48.411Z,25.39
2022-08-20T13:56:14.908Z,25.30
2022-08-20T13:58:41.403Z,25.27
2022-08-20T14:01:07.956Z,25.43
2022-08-20T14:03:35.051Z,25.50
2022-08-20T14:06:03.330Z,25.52
2022-08-20T14:08:29.814Z,25.59
2022-08-20T14:10:57.177Z,25.98
2022-08-20T14:13:26.009Z,25.98
2022-08-20T14:15:52.740Z,25.93
2022-08-20T14:18:19.986Z,26.12
2022-08-20T14:20:46.667Z,26.16
2022-08-20T14:23:14.318Z,26.07
2022-08-20T14:25:41.471Z,26.39
2022-08-20T14:28:18.055Z,26.76
2022-08-20T14:30:46.081Z,26.65
2022-08-20T14:33:19.008Z,26.45
2022-08-20T14:35:45.456Z,26.55
2022-08-20T14:38:11.946Z,26.30
2022-08-20T14:40:38.450Z,25.86
2022-08-20T14:43:05.029Z,25.49
2022-08-20T14:45:31.598Z,25.32
2022-08-20T14:47:59.112Z,25.19
2022-08-20T14:50:30.487Z,25.11
2022-08-20T14:52:57.951Z,25.18
2022-08-20T14:55:28.071Z,25.38
2022-08-20T14:57:55.215Z,25.63
2022-08-20T15:00:25.730Z,25.85
2022-08-20T15:02:52.474Z,25.82
2022-08-20T15:05:19.604Z,25.56
2022-08-20T15:07:49.435Z,25.31
2022-08-20T15:10:36.588Z,24.96
2022-08-20T15:13:03.056Z,25.14
2022-08-20T15:15:29.560Z,25.36
2022-08-20T15:18:02.618Z,25.26
2022-08-20T15:20:32.107Z,25.09
2022-08-20T15:22:59.880Z,25.09
2022-08-20T15:25:36.651Z,25.14
2022-08-20T15:28:06.802Z,25.14
2022-08-20T15:30:33.403Z,25.09
2022-08-20T15:33:00.367Z,25.06
2022-08-20T15:35:28.851Z,24.95
2022-08-20T15:37:57.707Z,24.98
2022-08-20T15:40:28.397Z,24.84
2022-08-20T15:42:57.069Z,24.67
2022-08-20T15:45:23.709Z,24.38
2022-08-20T15:47:59.791Z,23.96
2022-08-20T15:50:48.385Z,23.83
2022-08-20T15:53:27.336Z,23.79
2022-08-20T15:56:32.604Z,23.88
2022-08-20T15:59:20.359Z,23.78
2022-08-20T16:01:53.744Z,23.63
2022-08-20T16:04:23.260Z,23.41
2022-08-20T16:06:53.595Z,23.22
2022-08-20T16:09:19.990Z,23.11
2022-08-20T16:12:13.316Z,23.03
2022-08-20T16:14:47.397Z,23.09
2022-08-20T16:17:24.636Z,22.99
2022-08-20T16:20:10.278Z,22.88
2022-08-20T16:22:42.072Z,22.80
2022-08-20T16:25:09.865Z,22.66
2022-08-20T16:27:49.648Z,22.64
2022-08-20T16:30:42.689Z,22.56
2022-08-20T16:33:22.361Z,22.46
2022-08-20T16:35:54.706Z,22.42
2022-08-20T16:38:38.844Z,22.48
2022-08-20T16:41:30.860Z,22.56
2022-08-20T16:44:04.986Z,22.53
2022-08-20T16:46:37.962Z,22.35
2022-08-20T16:49:14.009Z,22.32
2022-08-20T16:51:48.189Z,22.38
2022-08-20T16:54:18.927Z,22.44
2022-08-20T16:57:05.190Z,22.54
2022-08-20T16:59:32.886Z,22.60
2022-08-20T17:02:10.729Z,22.59
2022-08-20T17:04:50.499Z,22.64
2022-08-20T17:07:43.555Z,22.57
2022-08-20T17:10:20.488Z,22.44
2022-08-20T17:13:00.278Z,22.37
2022-08-20T17:15:31.720Z,22.22
2022-08-20T17:18:17.106Z,22.13
2022-08-20T17:20:45.193Z,22.13
2022-08-20T17:23:17.951Z,22.03
2022-08-20T17:25:54.488Z,21.92
2022-08-20T17:28:23.272Z,21.85
2022-08-20T17:30:50.043Z,21.80
2022-08-20T17:33:25.780Z,21.76
2022-08-20T17:35:55.532Z,21.67
2022-08-20T17:38:36.685Z,21.65
2022-08-20T17:41:17.232Z,21.60
2022-08-20T17:43:44.518Z,21.57
2022-08-20T17:46:18.973Z,21.49
2022-08-20T17:48:48.032Z,21.42
2022-08-20T17:51:22.080Z,21.38
2022-08-20T17:53:57.299Z,21.37
2022-08-20T17:56:34.433Z,21.31
2022-08-20T17:59:10.425Z,21.26
2022-08-20T18:01:37.215Z,21.20
2022-08-20T18:04:03.964Z,21.15
2022-08-20T18:06:57.520Z,21.11
2022-08-20T18:09:35.797Z,21.07
2022-08-20T18:12:34.324Z,21.00
2022-08-20T18:15:23.634Z,20.95
2022-08-20T18:18:16.247Z,20.94
2022-08-20T18:20:42.654Z,20.88
2022-08-20T18:23:31.180Z,20.85
2022-08-20T18:26:06.041Z,20.78
2022-08-20T18:28:38.836Z,20.72
2022-08-20T18:31:08.947Z,20.64
2022-08-20T18:33:43.442Z,20.56
2022-08-20T18:36:19.010Z,20.49
2022-08-20T18:39:04.287Z,20.41
2022-08-20T18:41:34.702Z,20.33
2022-08-20T18:44:27.034Z,20.23
2022-08-20T18:46:59.656Z,20.17
2022-08-20T18:49:35.455Z,20.08
2022-08-20T18:52:10.259Z,20.02
2022-08-20T18:54:37.934Z,19.92
2022-08-20T18:57:08.737Z,19.86
2022-08-20T18:59:42.836Z,19.80
2022-08-20T19:02:23.587Z,19.73
2022-08-20T19:05:02.051Z,19.63
2022-08-20T19:07:45.716Z,19.56
2022-08-20T19:10:40.453Z,19.45
2022-08-20T19:13:16.418Z,19.37
2022-08-20T19:15:47.350Z,19.28
2022-08-20T19:18:30.007Z,19.19
2022-08-20T19:20:59.292Z,19.11
2022-08-20T19:23:28.390Z,19.04
2022-08-20T19:25:59.536Z,18.96
2022-08-20T19:28:32.013Z,18.88
2022-08-20T19:31:13.639Z,18.79
2022-08-20T19:33:44.178Z,18.73
2022-08-20T19:36:19.397Z,18.63
2022-08-20T19:38:52.416Z,18.57
2022-08-20T19:42:00.316Z,18.52
2022-08-20T19:44:52.922Z,18.45
2022-08-20T19:47:40.790Z,18.40
2022-08-20T19:50:17.196Z,18.34
2022-08-20T19:53:18.844Z,18.27
2022-08-20T19:56:14.307Z,18.20
2022-08-20T19:58:41.066Z,18.13
2022-08-20T20:01:17.515Z,18.06
2022-08-20T20:03:59.350Z,18.00
2022-08-20T20:06:27.108Z,17.93
2022-08-20T20:08:58.484Z,17.89
2022-08-20T20:11:36.256Z,17.83
2022-08-20T20:14:09.131Z,17.77
2022-08-20T20:16:38.063Z,17.70
2022-08-20T20:19:25.710Z,17.64
2022-08-20T20:22:19.767Z,17.57
2022-08-20T20:24:56.984Z,17.49
2022-08-20T20:27:26.188Z,17.44
2022-08-20T20:30:04.219Z,17.39
2022-08-20T20:32:33.538Z,17.35
2022-08-20T20:35:02.504Z,17.29
2022-08-20T20:37:49.656Z,17.24
2022-08-20T20:40:43.905Z,17.15
2022-08-20T20:43:23.350Z,17.12
2022-08-20T20:46:00.477Z,17.06
2022-08-20T20:48:33.801Z,17.02
2022-08-20T20:51:11.797Z,16.97
2022-08-20T20:53:55.104Z,16.91
2022-08-20T20:56:41.236Z,16.87
2022-08-20T20:59:09.097Z,16.82
2022-08-20T21:01:48.274Z,16.77
2022-08-20T21:04:23.970Z,16.72
2022-08-20T21:06:53.243Z,16.68
2022-08-20T21:09:21.377Z,16.65
2022-08-20T21:11:48.877Z,16.60
2022-08-20T21:14:16.060Z,16.57
2022-08-20T21:16:43.953Z,16.51
2022-08-20T21:19:11.083Z,16.47
2022-08-20T21:21:38.814Z,16.40
2022-08-20T21:24:06.627Z,16.38
2022-08-20T21:26:33.661Z,16.33
2022-08-20T21:29:00.347Z,16.29
2022-08-20T21:31:32.627Z,16.24
2022-08-20T21:33:59.380Z,16.21
2022-08-20T21:36:25.844Z,16.19
2022-08-20T21:38:52.414Z,16.14
2022-08-20T21:41:19.448Z,16.10
2022-08-20T21:43:56.259Z,16.06
2022-08-20T21:46:24.772Z,16.01
2022-08-20T21:48:51.571Z,15.96
2022-08-20T21:51:18.037Z,15.91
2022-08-20T21:53:44.530Z,15.88
2022-08-20T21:56:11.191Z,15.81
2022-08-20T21:58:38.459Z,15.79
2022-08-20T22:01:06.985Z,15.75
2022-08-20T22:03:38.545Z,15.74
2022-08-20T22:06:07.851Z,15.70
2022-08-20T22:08:35.036Z,15.64
2022-08-20T22:11:02.286Z,15.63
2022-08-20T22:13:31.784Z,15.57
2022-08-20T22:15:59.879Z,15.55
2022-08-20T22:18:26.480Z,15.52
2022-08-20T22:20:53.363Z,15.46
2022-08-20T22:23:19.999Z,15.43
2022-08-20T22:25:46.691Z,15.39
2022-08-20T22:28:13.167Z,15.36
2022-08-20T22:30:42.359Z,15.32
2022-08-20T22:33:12.585Z,15.30
2022-08-20T22:35:45.006Z,15.27
2022-08-20T22:38:11.544Z,15.25
2022-08-20T22:40:38.063Z,15.22
2022-08-20T22:43:04.538Z,15.20
2022-08-20T22:45:31.433Z,15.15
2022-08-20T22:47:57.989Z,15.08
2022-08-20T22:50:25.162Z,15.05
2022-08-20T22:52:52.445Z,15.08
2022-08-20T22:55:19.369Z,15.04
2022-08-20T22:57:46.809Z,15.02
2022-08-20T23:00:17.156Z,14.98
2022-08-20T23:02:46.585Z,14.96
2022-08-20T23:05:17.025Z,14.94
2022-08-20T23:07:43.637Z,14.92
2022-08-20T23:10:10.091Z,14.87
2022-08-20T23:12:37.506Z,14.83
2022-08-20T23:15:05.643Z,14.76
2022-08-20T23:17:33.283Z,14.76
2022-08-20T23:19:59.843Z,14.75
2022-08-20T23:22:26.326Z,14.74
2022-08-20T23:24:54.597Z,14.70
2022-08-20T23:27:23.723Z,14.69
2022-08-20T23:29:50.230Z,14.66
2022-08-20T23:32:17.128Z,14.66
2022-08-20T23:34:44.033Z,14.62
2022-08-20T23:37:11.227Z,14.61
2022-08-20T23:39:38.007Z,14.61
2022-08-20T23:42:04.661Z,14.58
2022-08-20T23:44:31.146Z,14.55
2022-08-20T23:47:01.953Z,14.49
2022-08-20T23:49:29.402Z,14.43
2022-08-20T23:51:57.693Z,14.42
2022-08-20T23:54:24.215Z,14.41
2022-08-20T23:56:50.718Z,14.39
2022-08-20T23:59:17.640Z,14.36
